sensor_id;sensor_type;location;lat;lon;timestamp;temperature;humidity
20158;DHT22;10239;56.820;24.416;2024-02-28T00:00:58;7.20;99.90
20158;DHT22;10239;56.820;24.416;2024-02-28T00:03:26;7.20;99.90
20158;DHT22;10239;56.820;24.416;2024-02-28T00:05:53;7.20;99.90
20158;DHT22;10239;56.820;24.416;2024-02-28T00:08:21;7.20;99.90
20158;DHT22;10239;56.820;24.416;2024-02-28T00:10:49;7.20;99.90
20158;DHT22;10239;56.820;24.416;2024-02-28T00:13:17;7.20;99.90
20158;DHT22;10239;56.820;24.416;2024-02-28T00:15:44;7.20;99.90
20158;DHT22;10239;56.820;24.416;2024-02-28T00:18:14;7.10;99.90
20158;DHT22;10239;56.820;24.416;2024-02-28T00:20:44;7.10;99.90
20158;DHT22;10239;56.820;24.416;2024-02-28T00:23:12;7.10;99.90
20158;DHT22;10239;56.820;24.416;2024-02-28T00:25:39;7.10;99.90
20158;DHT22;10239;56.820;24.416;2024-02-28T00:28:07;7.10;99.90
20158;DHT22;10239;56.820;24.416;2024-02-28T00:30:35;7.20;99.90
20158;DHT22;10239;56.820;24.416;2024-02-28T00:33:03;7.20;99.90
20158;DHT22;10239;56.820;24.416;2024-02-28T00:35:32;7.20;99.90
20158;DHT22;10239;56.820;24.416;2024-02-28T00:38:04;7.10;99.90
20158;DHT22;10239;56.820;24.416;2024-02-28T00:40:31;7.10;99.90
20158;DHT22;10239;56.820;24.416;2024-02-28T00:42:59;7.10;99.90
20158;DHT22;10239;56.820;24.416;2024-02-28T00:45:26;7.00;99.90
20158;DHT22;10239;56.820;24.416;2024-02-28T00:47:54;7.00;99.90
20158;DHT22;10239;56.820;24.416;2024-02-28T00:50:22;6.90;99.90
20158;DHT22;10239;56.820;24.416;2024-02-28T00:52:50;6.90;99.90
20158;DHT22;10239;56.820;24.416;2024-02-28T00:55:17;6.90;99.90
20158;DHT22;10239;56.820;24.416;2024-02-28T00:57:46;6.90;99.90
20158;DHT22;10239;56.820;24.416;2024-02-28T01:00:14;6.90;99.90
20158;DHT22;10239;56.820;24.416;2024-02-28T01:02:41;6.90;99.90
20158;DHT22;10239;56.820;24.416;2024-02-28T01:05:09;6.90;99.90
20158;DHT22;10239;56.820;24.416;2024-02-28T01:07:36;6.90;99.90
20158;DHT22;10239;56.820;24.416;2024-02-28T01:10:04;6.90;99.90
20158;DHT22;10239;56.820;24.416;2024-02-28T01:12:32;7.00;99.90
20158;DHT22;10239;56.820;24.416;2024-02-28T01:15:00;7.00;99.90
20158;DHT22;10239;56.820;24.416;2024-02-28T01:17:27;7.10;99.90
20158;DHT22;10239;56.820;24.416;2024-02-28T01:19:55;7.20;99.90
20158;DHT22;10239;56.820;24.416;2024-02-28T01:22:22;7.10;99.90
20158;DHT22;10239;56.820;24.416;2024-02-28T01:24:50;7.00;99.90
20158;DHT22;10239;56.820;24.416;2024-02-28T01:27:17;7.00;99.90
20158;DHT22;10239;56.820;24.416;2024-02-28T01:29:45;6.90;99.90
20158;DHT22;10239;56.820;24.416;2024-02-28T01:32:13;7.00;99.90
20158;DHT22;10239;56.820;24.416;2024-02-28T01:34:40;6.90;99.90
20158;DHT22;10239;56.820;24.416;2024-02-28T01:37:08;6.90;99.90
20158;DHT22;10239;56.820;24.416;2024-02-28T01:39:35;6.90;99.90
20158;DHT22;10239;56.820;24.416;2024-02-28T01:42:03;6.90;99.90
20158;DHT22;10239;56.820;24.416;2024-02-28T01:44:31;6.80;99.90
20158;DHT22;10239;56.820;24.416;2024-02-28T01:47:01;6.80;99.90
20158;DHT22;10239;56.820;24.416;2024-02-28T01:49:30;6.80;99.90
20158;DHT22;10239;56.820;24.416;2024-02-28T01:51:58;6.80;99.90
20158;DHT22;10239;56.820;24.416;2024-02-28T01:54:27;6.80;99.90
20158;DHT22;10239;56.820;24.416;2024-02-28T01:56:55;6.70;99.90
20158;DHT22;10239;56.820;24.416;2024-02-28T01:59:24;6.70;99.90
20158;DHT22;10239;56.820;24.416;2024-02-28T02:01:54;6.70;99.90
20158;DHT22;10239;56.820;24.416;2024-02-28T02:04:22;6.80;99.90
20158;DHT22;10239;56.820;24.416;2024-02-28T02:06:50;6.80;99.90
20158;DHT22;10239;56.820;24.416;2024-02-28T02:09:21;6.80;99.90
20158;DHT22;10239;56.820;24.416;2024-02-28T02:11:49;6.80;99.90
20158;DHT22;10239;56.820;24.416;2024-02-28T02:14:17;6.80;99.90
20158;DHT22;10239;56.820;24.416;2024-02-28T02:16:44;6.80;99.90
20158;DHT22;10239;56.820;24.416;2024-02-28T02:19:11;6.80;99.90
20158;DHT22;10239;56.820;24.416;2024-02-28T02:21:48;6.80;99.90
20158;DHT22;10239;56.820;24.416;2024-02-28T02:24:16;6.80;99.90
20158;DHT22;10239;56.820;24.416;2024-02-28T02:26:44;6.90;99.90
20158;DHT22;10239;56.820;24.416;2024-02-28T02:29:13;6.80;99.90
20158;DHT22;10239;56.820;24.416;2024-02-28T02:31:41;6.80;99.90
20158;DHT22;10239;56.820;24.416;2024-02-28T02:34:09;6.70;99.90
20158;DHT22;10239;56.820;24.416;2024-02-28T02:36:36;6.70;99.90
20158;DHT22;10239;56.820;24.416;2024-02-28T02:39:04;7.20;99.90
20158;DHT22;10239;56.820;24.416;2024-02-28T02:41:32;6.70;99.90
20158;DHT22;10239;56.820;24.416;2024-02-28T02:43:59;6.70;99.90
20158;DHT22;10239;56.820;24.416;2024-02-28T02:46:26;6.70;99.90
20158;DHT22;10239;56.820;24.416;2024-02-28T02:48:54;6.70;99.90
20158;DHT22;10239;56.820;24.416;2024-02-28T02:51:21;6.70;99.90
20158;DHT22;10239;56.820;24.416;2024-02-28T02:53:49;6.70;99.90
20158;DHT22;10239;56.820;24.416;2024-02-28T02:56:16;6.70;99.90
20158;DHT22;10239;56.820;24.416;2024-02-28T02:58:44;6.70;99.90
20158;DHT22;10239;56.820;24.416;2024-02-28T03:01:11;6.70;99.90
20158;DHT22;10239;56.820;24.416;2024-02-28T03:03:39;6.70;99.90
20158;DHT22;10239;56.820;24.416;2024-02-28T03:06:07;6.80;99.90
20158;DHT22;10239;56.820;24.416;2024-02-28T03:08:34;6.70;99.90
20158;DHT22;10239;56.820;24.416;2024-02-28T03:11:02;6.80;99.90
20158;DHT22;10239;56.820;24.416;2024-02-28T03:13:31;6.80;99.90
20158;DHT22;10239;56.820;24.416;2024-02-28T03:15:59;6.80;99.90
20158;DHT22;10239;56.820;24.416;2024-02-28T03:18:27;6.80;99.90
20158;DHT22;10239;56.820;24.416;2024-02-28T03:20:54;6.90;99.90
20158;DHT22;10239;56.820;24.416;2024-02-28T03:23:22;6.90;99.90
20158;DHT22;10239;56.820;24.416;2024-02-28T03:25:49;6.80;99.90
20158;DHT22;10239;56.820;24.416;2024-02-28T03:28:16;6.80;99.90
20158;DHT22;10239;56.820;24.416;2024-02-28T03:30:44;6.80;99.90
20158;DHT22;10239;56.820;24.416;2024-02-28T03:33:11;6.80;99.90
20158;DHT22;10239;56.820;24.416;2024-02-28T03:35:39;6.80;99.90
20158;DHT22;10239;56.820;24.416;2024-02-28T03:38:06;6.80;99.90
20158;DHT22;10239;56.820;24.416;2024-02-28T03:40:34;6.70;99.90
20158;DHT22;10239;56.820;24.416;2024-02-28T03:43:01;6.80;99.90
20158;DHT22;10239;56.820;24.416;2024-02-28T03:45:28;6.70;99.90
20158;DHT22;10239;56.820;24.416;2024-02-28T03:47:59;6.70;99.90
20158;DHT22;10239;56.820;24.416;2024-02-28T03:50:26;6.70;99.90
20158;DHT22;10239;56.820;24.416;2024-02-28T03:52:53;6.80;99.90
20158;DHT22;10239;56.820;24.416;2024-02-28T03:55:21;6.70;99.90
20158;DHT22;10239;56.820;24.416;2024-02-28T03:57:48;6.80;99.90
20158;DHT22;10239;56.820;24.416;2024-02-28T04:00:19;6.80;99.90
20158;DHT22;10239;56.820;24.416;2024-02-28T04:02:46;6.80;99.90
20158;DHT22;10239;56.820;24.416;2024-02-28T04:05:13;6.90;99.90
20158;DHT22;10239;56.820;24.416;2024-02-28T04:07:41;6.80;99.90
20158;DHT22;10239;56.820;24.416;2024-02-28T04:10:08;6.80;99.90
20158;DHT22;10239;56.820;24.416;2024-02-28T04:12:38;6.80;99.90
20158;DHT22;10239;56.820;24.416;2024-02-28T04:15:06;6.80;99.90
20158;DHT22;10239;56.820;24.416;2024-02-28T04:17:33;6.80;99.90
20158;DHT22;10239;56.820;24.416;2024-02-28T04:20:01;6.80;99.90
20158;DHT22;10239;56.820;24.416;2024-02-28T04:22:31;6.80;99.90
20158;DHT22;10239;56.820;24.416;2024-02-28T04:24:58;6.80;99.90
20158;DHT22;10239;56.820;24.416;2024-02-28T04:27:26;6.70;99.90
20158;DHT22;10239;56.820;24.416;2024-02-28T04:29:54;6.70;99.90
20158;DHT22;10239;56.820;24.416;2024-02-28T04:32:21;6.60;99.90
20158;DHT22;10239;56.820;24.416;2024-02-28T04:34:49;6.60;99.90
20158;DHT22;10239;56.820;24.416;2024-02-28T04:37:17;6.60;99.90
20158;DHT22;10239;56.820;24.416;2024-02-28T04:39:46;6.60;99.90
20158;DHT22;10239;56.820;24.416;2024-02-28T04:42:15;6.60;99.90
20158;DHT22;10239;56.820;24.416;2024-02-28T04:44:43;6.60;99.90
20158;DHT22;10239;56.820;24.416;2024-02-28T04:47:11;6.60;99.90
20158;DHT22;10239;56.820;24.416;2024-02-28T04:49:39;6.50;99.90
20158;DHT22;10239;56.820;24.416;2024-02-28T04:52:06;6.40;99.90
20158;DHT22;10239;56.820;24.416;2024-02-28T04:54:34;6.40;99.90
20158;DHT22;10239;56.820;24.416;2024-02-28T04:57:01;6.50;99.90
20158;DHT22;10239;56.820;24.416;2024-02-28T04:59:30;6.50;99.90
20158;DHT22;10239;56.820;24.416;2024-02-28T05:01:59;6.50;99.90
20158;DHT22;10239;56.820;24.416;2024-02-28T05:04:26;6.50;99.90
20158;DHT22;10239;56.820;24.416;2024-02-28T05:06:54;6.50;99.90
20158;DHT22;10239;56.820;24.416;2024-02-28T05:09:22;6.50;99.90
20158;DHT22;10239;56.820;24.416;2024-02-28T05:11:49;6.50;99.90
20158;DHT22;10239;56.820;24.416;2024-02-28T05:14:17;6.60;99.90
20158;DHT22;10239;56.820;24.416;2024-02-28T05:16:44;6.60;99.90
20158;DHT22;10239;56.820;24.416;2024-02-28T05:19:14;6.70;99.90
20158;DHT22;10239;56.820;24.416;2024-02-28T05:21:45;6.70;99.90
20158;DHT22;10239;56.820;24.416;2024-02-28T05:24:13;6.80;99.90
20158;DHT22;10239;56.820;24.416;2024-02-28T05:26:40;6.80;99.90
20158;DHT22;10239;56.820;24.416;2024-02-28T05:29:08;6.80;99.90
20158;DHT22;10239;56.820;24.416;2024-02-28T05:31:36;6.70;99.90
20158;DHT22;10239;56.820;24.416;2024-02-28T05:34:05;6.80;99.90
20158;DHT22;10239;56.820;24.416;2024-02-28T05:36:33;6.80;99.90
20158;DHT22;10239;56.820;24.416;2024-02-28T05:39:01;6.80;99.90
20158;DHT22;10239;56.820;24.416;2024-02-28T05:41:33;6.80;99.90
20158;DHT22;10239;56.820;24.416;2024-02-28T05:44:00;6.80;99.90
20158;DHT22;10239;56.820;24.416;2024-02-28T05:46:28;6.80;99.90
20158;DHT22;10239;56.820;24.416;2024-02-28T05:48:56;6.80;99.90
20158;DHT22;10239;56.820;24.416;2024-02-28T05:51:23;6.80;99.90
20158;DHT22;10239;56.820;24.416;2024-02-28T05:53:51;6.80;99.90
20158;DHT22;10239;56.820;24.416;2024-02-28T05:56:19;6.80;99.90
20158;DHT22;10239;56.820;24.416;2024-02-28T05:58:47;6.80;99.90
20158;DHT22;10239;56.820;24.416;2024-02-28T06:01:16;6.80;99.90
20158;DHT22;10239;56.820;24.416;2024-02-28T06:03:48;6.70;99.90
20158;DHT22;10239;56.820;24.416;2024-02-28T06:06:15;6.70;99.90
20158;DHT22;10239;56.820;24.416;2024-02-28T06:08:43;6.70;99.90
20158;DHT22;10239;56.820;24.416;2024-02-28T06:11:11;6.70;99.90
20158;DHT22;10239;56.820;24.416;2024-02-28T06:13:40;6.70;99.90
20158;DHT22;10239;56.820;24.416;2024-02-28T06:16:14;6.70;99.90
20158;DHT22;10239;56.820;24.416;2024-02-28T06:18:42;6.70;99.90
20158;DHT22;10239;56.820;24.416;2024-02-28T06:21:10;6.80;99.90
20158;DHT22;10239;56.820;24.416;2024-02-28T06:23:37;6.80;99.90
20158;DHT22;10239;56.820;24.416;2024-02-28T06:26:04;6.80;99.90
20158;DHT22;10239;56.820;24.416;2024-02-28T06:28:31;6.90;99.90
20158;DHT22;10239;56.820;24.416;2024-02-28T06:31:01;6.90;99.90
20158;DHT22;10239;56.820;24.416;2024-02-28T06:33:29;6.90;99.90
20158;DHT22;10239;56.820;24.416;2024-02-28T06:35:56;6.90;99.90
20158;DHT22;10239;56.820;24.416;2024-02-28T06:38:24;6.90;99.90
20158;DHT22;10239;56.820;24.416;2024-02-28T06:40:51;7.70;99.90
20158;DHT22;10239;56.820;24.416;2024-02-28T06:43:18;6.90;99.90
20158;DHT22;10239;56.820;24.416;2024-02-28T06:45:46;6.90;99.90
20158;DHT22;10239;56.820;24.416;2024-02-28T06:48:14;6.90;99.90
20158;DHT22;10239;56.820;24.416;2024-02-28T06:50:41;6.90;99.90
20158;DHT22;10239;56.820;24.416;2024-02-28T06:53:08;7.00;99.90
20158;DHT22;10239;56.820;24.416;2024-02-28T06:55:36;7.00;99.90
20158;DHT22;10239;56.820;24.416;2024-02-28T06:58:03;6.90;99.90
20158;DHT22;10239;56.820;24.416;2024-02-28T07:00:31;7.00;99.90
20158;DHT22;10239;56.820;24.416;2024-02-28T07:02:58;7.00;99.90
20158;DHT22;10239;56.820;24.416;2024-02-28T07:05:25;7.00;99.90
20158;DHT22;10239;56.820;24.416;2024-02-28T07:07:53;6.90;99.90
20158;DHT22;10239;56.820;24.416;2024-02-28T07:10:20;7.00;99.90
20158;DHT22;10239;56.820;24.416;2024-02-28T07:12:47;7.00;99.90
20158;DHT22;10239;56.820;24.416;2024-02-28T07:15:15;6.90;99.90
20158;DHT22;10239;56.820;24.416;2024-02-28T07:17:42;6.90;99.90
20158;DHT22;10239;56.820;24.416;2024-02-28T07:20:11;6.90;99.90
20158;DHT22;10239;56.820;24.416;2024-02-28T07:22:42;6.90;99.90
20158;DHT22;10239;56.820;24.416;2024-02-28T07:25:09;7.00;99.90
20158;DHT22;10239;56.820;24.416;2024-02-28T07:27:37;7.00;99.90
20158;DHT22;10239;56.820;24.416;2024-02-28T07:30:04;6.90;99.90
20158;DHT22;10239;56.820;24.416;2024-02-28T07:32:33;7.00;99.90
20158;DHT22;10239;56.820;24.416;2024-02-28T07:35:02;6.90;99.90
20158;DHT22;10239;56.820;24.416;2024-02-28T07:37:30;7.00;99.90
20158;DHT22;10239;56.820;24.416;2024-02-28T07:39:57;6.90;99.90
20158;DHT22;10239;56.820;24.416;2024-02-28T07:42:24;7.00;99.90
20158;DHT22;10239;56.820;24.416;2024-02-28T07:44:52;7.00;99.90
20158;DHT22;10239;56.820;24.416;2024-02-28T07:47:24;7.10;99.90
20158;DHT22;10239;56.820;24.416;2024-02-28T07:49:51;7.10;99.90
20158;DHT22;10239;56.820;24.416;2024-02-28T07:52:20;7.10;99.90
20158;DHT22;10239;56.820;24.416;2024-02-28T07:54:47;7.10;99.90
20158;DHT22;10239;56.820;24.416;2024-02-28T07:57:15;7.10;99.90
20158;DHT22;10239;56.820;24.416;2024-02-28T07:59:42;7.20;99.90
20158;DHT22;10239;56.820;24.416;2024-02-28T08:02:10;7.20;99.90
20158;DHT22;10239;56.820;24.416;2024-02-28T08:04:40;7.30;99.90
20158;DHT22;10239;56.820;24.416;2024-02-28T08:07:07;7.30;99.90
20158;DHT22;10239;56.820;24.416;2024-02-28T08:09:34;7.40;99.90
20158;DHT22;10239;56.820;24.416;2024-02-28T08:12:02;7.50;99.90
20158;DHT22;10239;56.820;24.416;2024-02-28T08:14:29;7.50;99.90
20158;DHT22;10239;56.820;24.416;2024-02-28T08:16:56;7.40;99.90
20158;DHT22;10239;56.820;24.416;2024-02-28T08:19:24;7.20;99.90
20158;DHT22;10239;56.820;24.416;2024-02-28T08:21:51;7.30;99.90
20158;DHT22;10239;56.820;24.416;2024-02-28T08:24:19;7.30;99.90
20158;DHT22;10239;56.820;24.416;2024-02-28T08:26:46;7.30;99.90
20158;DHT22;10239;56.820;24.416;2024-02-28T08:29:13;7.30;99.90
20158;DHT22;10239;56.820;24.416;2024-02-28T08:31:44;7.40;99.90
20158;DHT22;10239;56.820;24.416;2024-02-28T08:34:11;7.50;99.90
20158;DHT22;10239;56.820;24.416;2024-02-28T08:36:39;7.50;99.90
20158;DHT22;10239;56.820;24.416;2024-02-28T08:39:07;7.50;99.90
20158;DHT22;10239;56.820;24.416;2024-02-28T08:41:36;7.50;99.90
20158;DHT22;10239;56.820;24.416;2024-02-28T08:44:04;7.50;99.90
20158;DHT22;10239;56.820;24.416;2024-02-28T08:46:31;7.50;99.90
20158;DHT22;10239;56.820;24.416;2024-02-28T08:48:58;7.60;99.90
20158;DHT22;10239;56.820;24.416;2024-02-28T08:51:26;7.60;99.90
20158;DHT22;10239;56.820;24.416;2024-02-28T08:53:54;7.50;99.90
20158;DHT22;10239;56.820;24.416;2024-02-28T08:56:22;7.50;99.90
20158;DHT22;10239;56.820;24.416;2024-02-28T08:58:49;7.50;99.90
20158;DHT22;10239;56.820;24.416;2024-02-28T09:01:17;7.60;99.90
20158;DHT22;10239;56.820;24.416;2024-02-28T09:03:44;7.60;99.90
20158;DHT22;10239;56.820;24.416;2024-02-28T09:06:12;7.60;99.90
20158;DHT22;10239;56.820;24.416;2024-02-28T09:08:39;7.60;99.90
20158;DHT22;10239;56.820;24.416;2024-02-28T09:11:06;7.60;99.90
20158;DHT22;10239;56.820;24.416;2024-02-28T09:13:34;7.70;99.90
20158;DHT22;10239;56.820;24.416;2024-02-28T09:16:04;7.80;99.90
20158;DHT22;10239;56.820;24.416;2024-02-28T09:18:32;7.80;99.90
20158;DHT22;10239;56.820;24.416;2024-02-28T09:20:59;8.00;99.90
20158;DHT22;10239;56.820;24.416;2024-02-28T09:23:27;7.90;99.90
20158;DHT22;10239;56.820;24.416;2024-02-28T09:25:54;7.90;99.90
20158;DHT22;10239;56.820;24.416;2024-02-28T09:28:23;7.90;99.90
20158;DHT22;10239;56.820;24.416;2024-02-28T09:30:50;7.90;99.90
20158;DHT22;10239;56.820;24.416;2024-02-28T09:33:20;8.00;99.90
20158;DHT22;10239;56.820;24.416;2024-02-28T09:35:47;7.90;99.90
20158;DHT22;10239;56.820;24.416;2024-02-28T09:38:15;7.90;99.90
20158;DHT22;10239;56.820;24.416;2024-02-28T09:40:49;7.90;99.90
20158;DHT22;10239;56.820;24.416;2024-02-28T09:43:27;7.80;99.90
20158;DHT22;10239;56.820;24.416;2024-02-28T09:46:14;7.80;99.90
20158;DHT22;10239;56.820;24.416;2024-02-28T09:48:43;7.80;99.90
20158;DHT22;10239;56.820;24.416;2024-02-28T09:51:14;7.80;99.90
20158;DHT22;10239;56.820;24.416;2024-02-28T09:53:42;7.80;99.90
20158;DHT22;10239;56.820;24.416;2024-02-28T09:56:10;7.80;99.90
20158;DHT22;10239;56.820;24.416;2024-02-28T09:58:39;7.90;99.90
20158;DHT22;10239;56.820;24.416;2024-02-28T10:01:11;8.00;99.90
20158;DHT22;10239;56.820;24.416;2024-02-28T10:03:44;8.00;99.90
20158;DHT22;10239;56.820;24.416;2024-02-28T10:06:13;8.00;99.90
20158;DHT22;10239;56.820;24.416;2024-02-28T10:08:41;8.00;99.90
20158;DHT22;10239;56.820;24.416;2024-02-28T10:11:09;8.00;99.90
20158;DHT22;10239;56.820;24.416;2024-02-28T10:13:37;7.90;99.90
20158;DHT22;10239;56.820;24.416;2024-02-28T10:16:06;7.90;99.90
20158;DHT22;10239;56.820;24.416;2024-02-28T10:18:34;7.90;99.90
20158;DHT22;10239;56.820;24.416;2024-02-28T10:21:04;7.90;99.90
20158;DHT22;10239;56.820;24.416;2024-02-28T10:23:32;8.00;99.90
20158;DHT22;10239;56.820;24.416;2024-02-28T10:26:01;8.10;99.90
20158;DHT22;10239;56.820;24.416;2024-02-28T10:28:28;8.10;99.90
20158;DHT22;10239;56.820;24.416;2024-02-28T10:30:56;8.20;99.90
20158;DHT22;10239;56.820;24.416;2024-02-28T10:33:27;8.30;99.90
20158;DHT22;10239;56.820;24.416;2024-02-28T10:36:01;8.40;99.90
20158;DHT22;10239;56.820;24.416;2024-02-28T10:38:31;8.40;99.90
20158;DHT22;10239;56.820;24.416;2024-02-28T10:41:00;8.30;99.90
20158;DHT22;10239;56.820;24.416;2024-02-28T10:43:29;8.40;99.90
20158;DHT22;10239;56.820;24.416;2024-02-28T10:45:58;8.30;99.90
20158;DHT22;10239;56.820;24.416;2024-02-28T10:48:46;8.20;99.90
20158;DHT22;10239;56.820;24.416;2024-02-28T10:51:16;8.20;99.90
20158;DHT22;10239;56.820;24.416;2024-02-28T10:53:50;8.20;99.90
20158;DHT22;10239;56.820;24.416;2024-02-28T10:56:21;8.20;99.90
20158;DHT22;10239;56.820;24.416;2024-02-28T10:58:56;8.30;99.90
20158;DHT22;10239;56.820;24.416;2024-02-28T11:01:26;8.20;99.90
20158;DHT22;10239;56.820;24.416;2024-02-28T11:03:55;8.40;99.90
20158;DHT22;10239;56.820;24.416;2024-02-28T11:06:23;8.50;99.90
20158;DHT22;10239;56.820;24.416;2024-02-28T11:08:52;8.50;99.90
20158;DHT22;10239;56.820;24.416;2024-02-28T11:11:24;8.60;99.90
20158;DHT22;10239;56.820;24.416;2024-02-28T11:13:56;8.70;99.90
20158;DHT22;10239;56.820;24.416;2024-02-28T11:16:30;8.70;99.90
20158;DHT22;10239;56.820;24.416;2024-02-28T11:18:59;8.70;99.90
20158;DHT22;10239;56.820;24.416;2024-02-28T11:21:27;8.70;99.90
20158;DHT22;10239;56.820;24.416;2024-02-28T11:24:00;8.70;99.90
20158;DHT22;10239;56.820;24.416;2024-02-28T11:26:28;8.70;99.90
20158;DHT22;10239;56.820;24.416;2024-02-28T11:28:55;8.80;99.90
20158;DHT22;10239;56.820;24.416;2024-02-28T11:31:23;8.80;99.90
20158;DHT22;10239;56.820;24.416;2024-02-28T11:33:51;8.80;99.90
20158;DHT22;10239;56.820;24.416;2024-02-28T11:36:18;8.80;99.90
20158;DHT22;10239;56.820;24.416;2024-02-28T11:38:46;8.70;99.90
20158;DHT22;10239;56.820;24.416;2024-02-28T11:41:14;8.70;99.90
20158;DHT22;10239;56.820;24.416;2024-02-28T11:43:41;8.80;99.90
20158;DHT22;10239;56.820;24.416;2024-02-28T11:46:18;8.80;99.90
20158;DHT22;10239;56.820;24.416;2024-02-28T11:48:46;8.80;99.90
20158;DHT22;10239;56.820;24.416;2024-02-28T11:51:13;9.00;99.90
20158;DHT22;10239;56.820;24.416;2024-02-28T11:53:41;9.00;99.90
20158;DHT22;10239;56.820;24.416;2024-02-28T11:56:10;9.00;99.90
20158;DHT22;10239;56.820;24.416;2024-02-28T11:58:38;9.00;99.90
20158;DHT22;10239;56.820;24.416;2024-02-28T12:01:40;9.10;99.90
20158;DHT22;10239;56.820;24.416;2024-02-28T12:04:08;9.00;99.90
20158;DHT22;10239;56.820;24.416;2024-02-28T12:06:37;8.90;99.90
20158;DHT22;10239;56.820;24.416;2024-02-28T12:09:11;8.90;99.90
20158;DHT22;10239;56.820;24.416;2024-02-28T12:11:50;8.90;99.90
20158;DHT22;10239;56.820;24.416;2024-02-28T12:14:18;8.90;99.90
20158;DHT22;10239;56.820;24.416;2024-02-28T12:16:48;8.90;99.90
20158;DHT22;10239;56.820;24.416;2024-02-28T12:19:16;9.00;99.90
20158;DHT22;10239;56.820;24.416;2024-02-28T12:21:47;8.90;99.90
20158;DHT22;10239;56.820;24.416;2024-02-28T12:24:15;8.90;99.90
20158;DHT22;10239;56.820;24.416;2024-02-28T12:26:43;8.90;99.90
20158;DHT22;10239;56.820;24.416;2024-02-28T12:29:11;8.80;99.90
20158;DHT22;10239;56.820;24.416;2024-02-28T12:31:40;8.80;99.90
20158;DHT22;10239;56.820;24.416;2024-02-28T12:34:08;8.70;99.90
20158;DHT22;10239;56.820;24.416;2024-02-28T12:36:35;8.60;99.90
20158;DHT22;10239;56.820;24.416;2024-02-28T12:39:03;8.60;99.90
20158;DHT22;10239;56.820;24.416;2024-02-28T12:41:33;8.60;99.90
20158;DHT22;10239;56.820;24.416;2024-02-28T12:44:01;8.60;99.90
20158;DHT22;10239;56.820;24.416;2024-02-28T12:46:29;8.60;99.90
20158;DHT22;10239;56.820;24.416;2024-02-28T12:48:56;8.60;99.90
20158;DHT22;10239;56.820;24.416;2024-02-28T12:51:41;8.50;99.90
20158;DHT22;10239;56.820;24.416;2024-02-28T12:54:10;8.50;99.90
20158;DHT22;10239;56.820;24.416;2024-02-28T12:56:38;8.40;99.90
20158;DHT22;10239;56.820;24.416;2024-02-28T12:59:13;8.40;99.90
20158;DHT22;10239;56.820;24.416;2024-02-28T13:01:43;8.40;99.90
20158;DHT22;10239;56.820;24.416;2024-02-28T13:04:10;8.40;99.90
20158;DHT22;10239;56.820;24.416;2024-02-28T13:06:40;8.30;99.90
20158;DHT22;10239;56.820;24.416;2024-02-28T13:09:08;8.30;99.90
20158;DHT22;10239;56.820;24.416;2024-02-28T13:11:40;8.30;99.90
20158;DHT22;10239;56.820;24.416;2024-02-28T13:14:08;8.30;99.90
20158;DHT22;10239;56.820;24.416;2024-02-28T13:16:36;8.30;99.90
20158;DHT22;10239;56.820;24.416;2024-02-28T13:19:05;8.40;99.90
20158;DHT22;10239;56.820;24.416;2024-02-28T13:21:33;8.40;99.90
20158;DHT22;10239;56.820;24.416;2024-02-28T13:24:01;8.40;99.90
20158;DHT22;10239;56.820;24.416;2024-02-28T13:26:29;8.50;99.90
20158;DHT22;10239;56.820;24.416;2024-02-28T13:28:57;8.40;99.90
20158;DHT22;10239;56.820;24.416;2024-02-28T13:31:24;8.30;99.90
20158;DHT22;10239;56.820;24.416;2024-02-28T13:33:52;8.20;99.90
20158;DHT22;10239;56.820;24.416;2024-02-28T13:36:20;8.30;99.90
20158;DHT22;10239;56.820;24.416;2024-02-28T13:38:48;8.20;99.90
20158;DHT22;10239;56.820;24.416;2024-02-28T13:41:15;8.20;99.90
20158;DHT22;10239;56.820;24.416;2024-02-28T13:43:43;8.30;99.90
20158;DHT22;10239;56.820;24.416;2024-02-28T13:46:11;8.30;99.90
20158;DHT22;10239;56.820;24.416;2024-02-28T13:48:39;8.30;99.90
20158;DHT22;10239;56.820;24.416;2024-02-28T13:51:07;8.20;99.90
20158;DHT22;10239;56.820;24.416;2024-02-28T13:53:34;8.20;99.90
20158;DHT22;10239;56.820;24.416;2024-02-28T13:56:02;8.20;99.90
20158;DHT22;10239;56.820;24.416;2024-02-28T13:58:30;8.10;99.90
20158;DHT22;10239;56.820;24.416;2024-02-28T14:01:09;8.10;99.90
20158;DHT22;10239;56.820;24.416;2024-02-28T14:03:38;8.10;99.90
20158;DHT22;10239;56.820;24.416;2024-02-28T14:06:09;8.20;99.90
20158;DHT22;10239;56.820;24.416;2024-02-28T14:08:36;8.10;99.90
20158;DHT22;10239;56.820;24.416;2024-02-28T14:11:07;8.10;99.90
20158;DHT22;10239;56.820;24.416;2024-02-28T14:13:35;8.10;99.90
20158;DHT22;10239;56.820;24.416;2024-02-28T14:16:02;8.00;99.90
20158;DHT22;10239;56.820;24.416;2024-02-28T14:18:30;8.00;99.90
20158;DHT22;10239;56.820;24.416;2024-02-28T14:20:58;8.00;99.90
20158;DHT22;10239;56.820;24.416;2024-02-28T14:23:25;7.90;99.90
20158;DHT22;10239;56.820;24.416;2024-02-28T14:25:53;8.00;99.90
20158;DHT22;10239;56.820;24.416;2024-02-28T14:28:22;7.90;99.90
20158;DHT22;10239;56.820;24.416;2024-02-28T14:30:51;7.90;99.90
20158;DHT22;10239;56.820;24.416;2024-02-28T14:33:19;7.90;99.90
20158;DHT22;10239;56.820;24.416;2024-02-28T14:35:47;7.90;99.90
20158;DHT22;10239;56.820;24.416;2024-02-28T14:38:15;7.90;99.90
20158;DHT22;10239;56.820;24.416;2024-02-28T14:40:43;7.90;99.90
20158;DHT22;10239;56.820;24.416;2024-02-28T14:43:10;7.90;99.90
20158;DHT22;10239;56.820;24.416;2024-02-28T14:45:38;7.90;99.90
20158;DHT22;10239;56.820;24.416;2024-02-28T14:48:07;7.90;99.90
20158;DHT22;10239;56.820;24.416;2024-02-28T14:50:35;7.90;99.90
20158;DHT22;10239;56.820;24.416;2024-02-28T14:53:03;7.90;99.90
20158;DHT22;10239;56.820;24.416;2024-02-28T14:55:31;7.90;99.90
20158;DHT22;10239;56.820;24.416;2024-02-28T14:57:58;7.90;99.90
20158;DHT22;10239;56.820;24.416;2024-02-28T15:00:28;7.70;99.90
20158;DHT22;10239;56.820;24.416;2024-02-28T15:02:55;7.70;99.90
20158;DHT22;10239;56.820;24.416;2024-02-28T15:05:26;7.60;99.90
20158;DHT22;10239;56.820;24.416;2024-02-28T15:07:53;7.60;99.90
20158;DHT22;10239;56.820;24.416;2024-02-28T15:10:22;7.40;99.90
20158;DHT22;10239;56.820;24.416;2024-02-28T15:12:50;7.40;99.90
20158;DHT22;10239;56.820;24.416;2024-02-28T15:15:18;7.30;99.90
20158;DHT22;10239;56.820;24.416;2024-02-28T15:17:52;7.30;99.90
20158;DHT22;10239;56.820;24.416;2024-02-28T15:20:19;7.20;99.90
20158;DHT22;10239;56.820;24.416;2024-02-28T15:22:47;7.20;99.90
20158;DHT22;10239;56.820;24.416;2024-02-28T15:25:21;7.10;99.90
20158;DHT22;10239;56.820;24.416;2024-02-28T15:27:50;7.10;99.90
20158;DHT22;10239;56.820;24.416;2024-02-28T15:30:18;7.00;99.90
20158;DHT22;10239;56.820;24.416;2024-02-28T15:32:45;7.00;99.90
20158;DHT22;10239;56.820;24.416;2024-02-28T15:35:13;6.90;99.90
20158;DHT22;10239;56.820;24.416;2024-02-28T15:37:40;6.80;99.90